Time;durP1;ratioP1;P1;durP2;ratioP2;P2;SDS_P1;SDS_P2;PMS_P1;PMS_P2;Temp;Humidity;BMP_temperature;BMP_pressure;BME280_temperature;BME280_humidity;BME280_pressure;Samples;Min_cycle;Max_cycle;Signal;HPM_P1;HPM_P2
2022/12/13 00:01:21;;;;;;;25.17;11.60;;;-7.70;99.90;;;;;;5015813;28;20033;-66
2022/12/13 00:03:51;;;;;;;27.63;11.13;;;-7.70;99.90;;;;;;5002790;28;20051;-66
2022/12/13 00:06:17;;;;;;;23.38;11.63;;;-7.60;99.90;;;;;;5002281;28;20049;-65
2022/12/13 00:08:44;;;;;;;22.80;11.23;;;-7.60;99.90;;;;;;5018501;28;20076;-64
2022/12/13 00:11:13;;;;;;;21.85;10.52;;;-7.60;99.90;;;;;;5001545;28;20710;-64
2022/12/13 00:13:42;;;;;;;24.83;11.68;;;-7.60;99.90;;;;;;5003887;28;20049;-65
2022/12/13 00:16:14;;;;;;;22.27;10.45;;;-7.60;99.90;;;;;;5017975;28;20414;-65
2022/12/13 00:18:42;;;;;;;21.67;10.40;;;-7.60;99.90;;;;;;5009131;28;20518;-64
2022/12/13 00:21:14;;;;;;;21.05;9.70;;;-7.50;99.90;;;;;;5000915;28;20553;-65
2022/12/13 00:23:40;;;;;;;22.73;9.93;;;-7.60;99.90;;;;;;5005124;28;20049;-66
2022/12/13 00:26:17;;;;;;;19.15;9.85;;;-7.60;99.90;;;;;;5004193;28;20111;-65
2022/12/13 00:28:48;;;;;;;19.88;10.35;;;-7.60;99.90;;;;;;5022223;28;20152;-65
2022/12/13 00:31:16;;;;;;;15.05;8.45;;;-7.60;99.90;;;;;;5020887;28;20045;-65
2022/12/13 00:34:03;;;;;;;14.50;8.02;;;-7.60;99.90;;;;;;5020980;28;20546;-66
2022/12/13 00:36:29;;;;;;;16.85;8.48;;;-7.60;99.90;;;;;;5018402;28;20168;-67
2022/12/13 00:38:59;;;;;;;22.73;10.35;;;-7.60;99.90;;;;;;5022212;28;20048;-65
2022/12/13 00:41:29;;;;;;;18.42;9.60;;;-7.60;99.90;;;;;;5021431;28;20044;-65
2022/12/13 00:43:57;;;;;;;18.98;8.65;;;-7.60;99.90;;;;;;5019273;28;20041;-65
2022/12/13 00:46:25;;;;;;;18.83;8.77;;;-7.70;99.90;;;;;;5022142;28;20236;-65
2022/12/13 00:48:55;;;;;;;19.23;8.80;;;-7.80;99.90;;;;;;5021176;28;20509;-64
2022/12/13 00:51:23;;;;;;;20.95;9.98;;;-7.80;99.90;;;;;;5023287;28;20045;-65
2022/12/13 00:53:50;;;;;;;21.08;10.07;;;-7.80;99.90;;;;;;5021183;28;20449;-64
2022/12/13 00:56:20;;;;;;;18.15;9.23;;;-7.80;99.90;;;;;;5018973;28;20864;-65
2022/12/13 00:58:49;;;;;;;20.45;9.38;;;-7.80;99.90;;;;;;5006843;28;20045;-64
2022/12/13 01:01:24;;;;;;;19.08;9.68;;;-7.80;99.90;;;;;;5001149;28;20045;-64
2022/12/13 01:03:56;;;;;;;26.33;11.07;;;-7.80;99.90;;;;;;5000642;28;20327;-64
2022/12/13 01:06:36;;;;;;;19.02;9.57;;;-7.80;99.90;;;;;;5001915;28;20111;-65
2022/12/13 01:09:05;;;;;;;18.20;8.73;;;-7.70;99.90;;;;;;5012593;28;20103;-65
2022/12/13 01:11:32;;;;;;;18.77;9.45;;;-7.70;99.90;;;;;;5025522;28;20060;-65
2022/12/13 01:13:59;;;;;;;23.38;9.95;;;-7.70;99.90;;;;;;5008660;28;20422;-65
2022/12/13 01:16:25;;;;;;;23.20;9.45;;;-7.70;99.90;;;;;;5019275;28;20076;-65
2022/12/13 01:18:52;;;;;;;17.58;8.60;;;-7.70;99.90;;;;;;5005662;28;20375;-66
2022/12/13 01:21:20;;;;;;;17.98;8.35;;;-7.70;99.90;;;;;;5015436;28;20689;-66
2022/12/13 01:23:48;;;;;;;16.77;8.05;;;-7.70;99.90;;;;;;5025922;28;20049;-66
2022/12/13 01:26:18;;;;;;;19.67;8.45;;;-7.70;99.90;;;;;;5023895;28;20126;-65
2022/12/13 01:28:46;;;;;;;18.42;8.65;;;-7.70;99.90;;;;;;5011243;28;20455;-64
2022/12/13 01:31:15;;;;;;;18.15;7.95;;;-7.70;99.90;;;;;;5025709;28;20076;-65
2022/12/13 01:33:42;;;;;;;18.90;8.60;;;-7.80;99.90;;;;;;5023149;28;20126;-67
2022/12/13 01:36:12;;;;;;;14.75;8.07;;;-7.80;99.90;;;;;;5005631;28;20052;-65
2022/12/13 01:38:39;;;;;;;17.45;8.73;;;-7.80;99.90;;;;;;5019942;28;20068;-66
2022/12/13 01:41:06;;;;;;;17.05;8.52;;;-7.80;99.90;;;;;;5023981;28;20443;-66
2022/12/13 01:43:53;;;;;;;19.92;8.35;;;-7.70;99.90;;;;;;5018984;28;20590;-63
2022/12/13 01:46:20;;;;;;;;;;;-7.70;99.90;;;;;;5008947;28;20357;-64
2022/12/13 01:49:02;;;;;;;14.73;7.43;;;-7.80;99.90;;;;;;5022893;28;20042;-65
2022/12/13 01:51:50;;;;;;;17.10;8.68;;;-7.70;99.90;;;;;;5021758;28;20045;-64
2022/12/13 01:54:21;;;;;;;20.08;9.65;;;-7.70;99.90;;;;;;5023857;28;20296;-64
2022/12/13 01:56:52;;;;;;;18.02;9.18;;;-7.70;99.90;;;;;;5024731;28;20306;-65
2022/12/13 01:59:27;;;;;;;17.60;9.27;;;-7.70;99.90;;;;;;5022076;28;20052;-65
2022/12/13 02:01:54;;;;;;;17.70;9.52;;;-7.70;99.90;;;;;;5024766;28;20095;-65
2022/12/13 02:04:38;;;;;;;22.33;9.23;;;-7.70;99.90;;;;;;5024167;28;20041;-64
2022/12/13 02:07:17;;;;;;;21.95;8.93;;;-7.60;99.90;;;;;;5004479;28;20053;-65
2022/12/13 02:09:51;;;;;;;17.60;8.52;;;-7.60;99.90;;;;;;5019515;28;20071;-65
2022/12/13 02:12:28;;;;;;;18.48;8.18;;;-7.60;99.90;;;;;;5024037;28;20509;-65
2022/12/13 02:14:59;;;;;;;16.08;8.15;;;-7.60;99.90;;;;;;5022404;28;20038;-67
2022/12/13 02:17:48;;;;;;;18.63;9.18;;;-7.60;99.90;;;;;;5010957;28;20102;-65
2022/12/13 02:20:46;;;;;;;20.15;8.75;;;-7.60;99.90;;;;;;5003517;28;20041;-65
2022/12/13 02:23:47;;;;;;;22.13;10.15;;;-7.60;99.90;;;;;;5002700;28;20699;-65
2022/12/13 02:26:53;;;;;;;19.15;9.95;;;-7.60;99.90;;;;;;5009797;28;20103;-67
2022/12/13 02:29:20;;;;;;;25.17;9.65;;;-7.60;99.90;;;;;;5021337;28;20462;-65
2022/12/13 02:32:16;;;;;;;21.02;10.82;;;-7.50;99.90;;;;;;5017005;28;20049;-65
2022/12/13 02:35:06;;;;;;;21.60;11.43;;;-7.50;99.90;;;;;;5019563;28;20056;-65
2022/12/13 02:38:06;;;;;;;28.55;13.65;;;-7.50;99.90;;;;;;4982795;28;20569;-65
2022/12/13 02:40:47;;;;;;;32.70;14.95;;;-7.50;99.90;;;;;;5007132;28;20059;-65
2022/12/13 02:43:26;;;;;;;31.50;14.02;;;-7.50;99.90;;;;;;5023067;28;20047;-65
2022/12/13 02:46:02;;;;;;;24.38;11.57;;;-7.50;99.90;;;;;;5012521;28;20140;-65
2022/12/13 02:48:33;;;;;;;27.55;12.35;;;-7.50;99.90;;;;;;5003075;28;20556;-66
2022/12/13 02:51:04;;;;;;;28.92;14.65;;;-7.50;99.90;;;;;;5015329;28;20522;-66
2022/12/13 02:53:32;;;;;;;28.30;12.68;;;-7.40;99.90;;;;;;5024489;28;20151;-65
2022/12/13 02:55:59;;;;;;;30.90;14.23;;;-7.40;99.90;;;;;;5022269;28;20080;-66
2022/12/13 02:58:34;;;;;;;31.33;13.30;;;-7.40;99.90;;;;;;5015302;28;20053;-65
2022/12/13 03:01:26;;;;;;;26.85;13.95;;;-7.40;99.90;;;;;;5020215;28;20060;-65
2022/12/13 03:04:14;;;;;;;32.75;13.27;;;-7.40;99.90;;;;;;5024264;28;20359;-65
2022/12/13 03:07:11;;;;;;;32.88;14.55;;;-7.40;99.90;;;;;;5010313;28;20056;-65
2022/12/13 03:09:54;;;;;;;33.77;15.10;;;-7.40;99.90;;;;;;5009599;28;20510;-66
2022/12/13 03:15:46;;;;;;;28.55;12.48;;;-7.50;99.90;;;;;;5010612;28;20044;-65
2022/12/13 03:18:21;;;;;;;34.05;14.00;;;-7.60;99.90;;;;;;5008201;28;20046;-65
2022/12/13 03:20:51;;;;;;;27.20;13.05;;;-7.60;99.90;;;;;;5002037;28;20045;-65
2022/12/13 03:23:19;;;;;;;31.77;14.13;;;-7.60;99.90;;;;;;5006359;28;20053;-67
2022/12/13 03:25:51;;;;;;;32.90;14.65;;;-7.60;99.90;;;;;;5010236;28;20585;-65
2022/12/13 03:28:17;;;;;;;32.10;13.50;;;-7.60;99.90;;;;;;5002813;28;20049;-64
2022/12/13 03:30:44;;;;;;;30.08;12.90;;;-7.60;99.90;;;;;;5003242;28;20395;-64
2022/12/13 03:33:11;;;;;;;30.27;14.98;;;-7.60;99.90;;;;;;5001277;28;20051;-64
2022/12/13 03:35:40;;;;;;;35.47;16.08;;;-7.50;99.90;;;;;;5010266;28;20120;-65
2022/12/13 03:38:13;;;;;;;29.95;13.35;;;-7.50;99.90;;;;;;5008718;28;20038;-64
2022/12/13 03:40:56;;;;;;;31.65;14.10;;;-7.50;99.90;;;;;;5000754;28;20071;-65
2022/12/13 03:43:23;;;;;;;27.27;13.10;;;-7.50;99.90;;;;;;5003131;28;20048;-65
2022/12/13 03:45:51;;;;;;;29.80;13.68;;;-7.50;99.90;;;;;;5017173;28;20052;-64
2022/12/13 03:48:18;;;;;;;30.15;14.20;;;-7.40;99.90;;;;;;5015440;28;20444;-64
2022/12/13 03:50:49;;;;;;;36.42;13.85;;;-7.40;99.90;;;;;;5018228;28;20045;-64
2022/12/13 03:53:17;;;;;;;32.15;14.13;;;-7.40;99.90;;;;;;5021555;28;20048;-65
2022/12/13 03:56:01;;;;;;;28.17;14.85;;;-7.40;99.90;;;;;;5019083;28;20068;-65
2022/12/13 03:58:29;;;;;;;35.58;14.65;;;-7.40;99.90;;;;;;5022951;28;20048;-65
2022/12/13 04:01:13;;;;;;;28.75;14.02;;;-7.40;99.90;;;;;;5019340;28;20049;-65
2022/12/13 04:03:41;;;;;;;34.42;15.52;;;-7.40;99.90;;;;;;5022763;28;20040;-64
2022/12/13 04:06:09;;;;;;;32.22;12.77;;;-7.40;99.90;;;;;;5020768;28;20037;-64
2022/12/13 04:08:38;;;;;;;31.30;14.60;;;-7.40;99.90;;;;;;5022283;28;20045;-65
2022/12/13 04:13:54;;;;;;;30.90;13.13;;;-7.50;99.90;;;;;;5011838;28;20037;-64
2022/12/13 04:16:22;;;;;;;34.13;14.15;;;-7.50;99.90;;;;;;5011775;28;20065;-65
2022/12/13 04:18:49;;;;;;;30.95;13.45;;;-7.50;99.90;;;;;;5020402;28;20541;-65
2022/12/13 04:21:16;;;;;;;33.33;14.40;;;-7.50;99.90;;;;;;5015696;28;20901;-64
2022/12/13 04:23:43;;;;;;;36.53;15.95;;;-7.50;99.90;;;;;;5004941;28;20056;-65
2022/12/13 04:26:10;;;;;;;33.58;14.15;;;-7.60;99.90;;;;;;5011046;28;20553;-65
2022/12/13 04:28:36;;;;;;;35.67;14.52;;;-7.60;99.90;;;;;;5007294;28;20157;-65
2022/12/13 04:31:03;;;;;;;34.75;14.07;;;-7.60;99.90;;;;;;5001585;28;20049;-67
2022/12/13 04:33:31;;;;;;;28.25;13.48;;;-7.50;99.90;;;;;;5011452;28;20543;-65
2022/12/13 04:35:58;;;;;;;29.38;12.50;;;-7.50;99.90;;;;;;5006966;28;20049;-66
2022/12/13 04:38:25;;;;;;;27.05;13.38;;;-7.50;99.90;;;;;;4994649;28;20033;-65
2022/12/13 04:40:52;;;;;;;27.90;12.55;;;-7.50;99.90;;;;;;5015506;28;20045;-65
2022/12/13 04:43:19;;;;;;;38.75;15.80;;;-7.50;99.90;;;;;;5008214;28;20288;-65
2022/12/13 04:45:45;;;;;;;41.25;16.45;;;-7.50;99.90;;;;;;5006592;28;20247;-65
2022/12/13 04:48:12;;;;;;;36.33;16.42;;;-7.40;99.90;;;;;;5020972;28;20482;-66
2022/12/13 04:50:58;;;;;;;40.00;17.15;;;-7.40;99.90;;;;;;5019225;28;20523;-64
2022/12/13 04:53:28;;;;;;;41.97;17.17;;;-7.50;99.90;;;;;;5017589;28;20525;-66
2022/12/13 04:55:55;;;;;;;35.00;15.57;;;-7.50;99.90;;;;;;5021157;28;20681;-66
2022/12/13 04:58:22;;;;;;;36.45;16.17;;;-7.50;99.90;;;;;;5008971;28;20045;-65
2022/12/13 05:00:49;;;;;;;36.53;17.45;;;-7.40;99.90;;;;;;5018302;28;20534;-68
2022/12/13 05:03:16;;;;;;;43.00;16.05;;;-7.40;99.90;;;;;;5023034;28;20064;-64
2022/12/13 05:05:43;;;;;;;31.38;14.80;;;-7.40;99.90;;;;;;5011843;28;20049;-65
2022/12/13 05:08:09;;;;;;;40.58;15.95;;;-7.40;99.90;;;;;;5014234;28;20079;-65
2022/12/13 05:10:36;;;;;;;33.45;16.50;;;-7.40;99.90;;;;;;5008547;28;20053;-66
2022/12/13 05:13:05;;;;;;;34.35;16.15;;;-7.40;99.90;;;;;;5006556;28;20045;-66
2022/12/13 05:15:32;;;;;;;31.70;15.70;;;-7.50;99.90;;;;;;5004177;28;20069;-66
2022/12/13 05:18:04;;;;;;;39.25;18.35;;;-7.50;99.90;;;;;;5019085;28;20046;-65
2022/12/13 05:20:39;;;;;;;37.50;16.80;;;-7.40;99.90;;;;;;5006050;28;20045;-66
2022/12/13 05:23:06;;;;;;;44.88;18.38;;;-7.40;99.90;;;;;;5010413;28;20063;-64
2022/12/13 05:25:35;;;;;;;39.17;18.30;;;-7.40;99.90;;;;;;5009511;28;20489;-65
2022/12/13 05:28:03;;;;;;;40.83;17.88;;;-7.40;99.90;;;;;;5020116;28;20051;-65
2022/12/13 05:30:50;;;;;;;;;;;-7.40;99.90;;;;;;5016164;28;20667;-66
2022/12/13 05:33:17;;;;;;;40.88;18.63;;;-7.40;99.90;;;;;;5015722;28;19934;-65
2022/12/13 05:35:45;;;;;;;39.90;18.70;;;-7.40;99.90;;;;;;5022256;28;20055;-66
2022/12/13 05:38:12;;;;;;;44.38;19.13;;;-7.40;99.90;;;;;;5023074;28;20103;-66
2022/12/13 05:40:39;;;;;;;39.10;17.88;;;-7.30;99.90;;;;;;5019585;28;20048;-66
2022/12/13 05:43:08;;;;;;;44.72;19.02;;;-7.30;99.90;;;;;;5008972;28;20431;-65
2022/12/13 05:45:47;;;;;;;42.05;19.10;;;-7.30;99.90;;;;;;5011332;28;20501;-66
2022/12/13 05:48:15;;;;;;;39.17;19.38;;;-7.30;99.90;;;;;;5023638;28;20416;-65
2022/12/13 05:50:50;;;;;;;38.00;17.52;;;-7.20;99.90;;;;;;5020464;28;20620;-66
2022/12/13 05:53:36;;;;;;;41.30;17.27;;;-7.20;99.90;;;;;;5012954;28;20029;-66
2022/12/13 05:56:03;;;;;;;42.03;17.20;;;-7.20;99.90;;;;;;5006957;28;20080;-65
2022/12/13 05:58:29;;;;;;;39.38;16.77;;;-7.20;99.90;;;;;;5017419;28;20510;-66
2022/12/13 06:01:07;;;;;;;39.55;18.65;;;-7.20;99.90;;;;;;5004877;28;20456;-65
2022/12/13 06:03:34;;;;;;;42.20;18.02;;;-7.20;99.90;;;;;;5007915;28;20107;-65
2022/12/13 06:06:02;;;;;;;38.67;17.25;;;-7.30;99.90;;;;;;5006181;28;20049;-65
2022/12/13 06:08:29;;;;;;;48.70;19.52;;;-7.30;99.90;;;;;;5019199;28;20060;-66
2022/12/13 06:10:58;;;;;;;36.42;17.17;;;-7.30;99.90;;;;;;5001371;28;20044;-65
2022/12/13 06:13:42;;;;;;;33.78;17.00;;;-7.30;99.90;;;;;;5015257;28;20088;-64
2022/12/13 06:16:11;;;;;;;37.72;17.50;;;-7.30;99.90;;;;;;5015860;28;20475;-65
2022/12/13 06:18:51;;;;;;;38.10;17.77;;;-7.30;99.90;;;;;;5006210;28;20378;-65
2022/12/13 06:21:25;;;;;;;42.53;18.33;;;-7.30;99.90;;;;;;5019128;28;20403;-66
2022/12/13 06:23:51;;;;;;;38.67;18.90;;;-7.30;99.90;;;;;;5018529;28;20498;-65
2022/12/13 06:26:18;;;;;;;47.20;19.13;;;-7.30;99.90;;;;;;5017302;28;20052;-65
2022/12/13 06:28:45;;;;;;;46.10;19.88;;;-7.20;99.90;;;;;;5005423;28;20045;-65
2022/12/13 06:31:12;;;;;;;43.72;17.95;;;-7.30;99.90;;;;;;5013534;28;20454;-65
2022/12/13 06:33:39;;;;;;;48.63;21.00;;;-7.20;99.90;;;;;;5006503;28;20041;-64
2022/12/13 06:36:06;;;;;;;45.25;19.65;;;-7.20;99.90;;;;;;5008207;28;20275;-67
2022/12/13 06:38:33;;;;;;;44.38;19.45;;;-7.20;99.90;;;;;;5018936;28;20410;-67
2022/12/13 06:41:13;;;;;;;50.85;19.52;;;-7.20;99.90;;;;;;5019876;28;20087;-67
2022/12/13 06:43:42;;;;;;;41.03;18.50;;;-7.20;99.90;;;;;;5018192;28;20362;-67
2022/12/13 06:46:09;;;;;;;46.15;20.63;;;-7.20;99.90;;;;;;5016283;28;20053;-67
2022/12/13 06:48:36;;;;;;;53.72;19.42;;;-7.10;99.90;;;;;;5008553;28;20054;-65
2022/12/13 06:51:04;;;;;;;41.78;20.20;;;-7.20;99.90;;;;;;5017445;28;20421;-65
2022/12/13 06:53:32;;;;;;;47.42;21.63;;;-7.10;99.90;;;;;;5007033;28;20483;-65
2022/12/13 06:56:07;;;;;;;47.35;20.50;;;-7.10;99.90;;;;;;5014734;28;20076;-65
2022/12/13 06:58:34;;;;;;;45.63;19.55;;;-7.10;99.90;;;;;;5017608;28;20049;-65
2022/12/13 07:01:10;;;;;;;48.22;21.63;;;-7.10;99.90;;;;;;5014001;28;20536;-65
2022/12/13 07:03:41;;;;;;;46.63;19.92;;;-7.00;99.90;;;;;;5015302;28;20056;-66
2022/12/13 07:06:26;;;;;;;44.70;20.13;;;-7.00;99.90;;;;;;5010557;28;20049;-66
2022/12/13 07:08:56;;;;;;;50.92;21.83;;;-7.00;99.90;;;;;;5015660;28;20033;-66
2022/12/13 07:11:26;;;;;;;50.00;21.35;;;-7.00;99.90;;;;;;5003290;28;20499;-66
2022/12/13 07:13:54;;;;;;;46.78;21.70;;;-7.00;99.90;;;;;;5005353;28;20041;-66
2022/12/13 07:16:21;;;;;;;49.83;19.88;;;-7.00;99.90;;;;;;5002884;28;20041;-67
2022/12/13 07:19:00;;;;;;;47.22;19.73;;;-7.00;99.90;;;;;;5013038;28;20114;-67
2022/12/13 07:21:28;;;;;;;41.75;20.58;;;-7.00;99.90;;;;;;5011168;28;20372;-66
2022/12/13 07:23:55;;;;;;;51.83;19.83;;;-6.90;99.90;;;;;;5017579;28;20075;-67
2022/12/13 07:26:23;;;;;;;43.25;18.75;;;-6.90;99.90;;;;;;5015373;28;20519;-67
2022/12/13 07:28:51;;;;;;;48.08;20.77;;;-6.90;99.90;;;;;;5011032;28;20398;-67
2022/12/13 07:31:22;;;;;;;45.75;19.17;;;-6.80;99.90;;;;;;5009010;28;20055;-67
2022/12/13 07:33:50;;;;;;;48.50;21.00;;;-6.80;99.90;;;;;;5012609;28;20065;-67
2022/12/13 07:36:19;;;;;;;46.20;20.48;;;-6.80;99.90;;;;;;5008421;28;20059;-67
2022/12/13 07:38:51;;;;;;;47.55;20.92;;;-6.80;99.90;;;;;;5013490;28;20111;-67
2022/12/13 07:41:18;;;;;;;54.85;20.85;;;-6.70;99.90;;;;;;5012615;28;20651;-64
2022/12/13 07:43:51;;;;;;;53.75;21.13;;;-6.70;99.90;;;;;;5011056;28;20447;-65
2022/12/13 07:46:22;;;;;;;49.70;23.23;;;-6.70;99.90;;;;;;5006499;28;20049;-67
2022/12/13 07:49:00;;;;;;;;;;;-6.60;99.90;;;;;;5001060;28;20631;-68
2022/12/13 07:51:27;;;;;;;47.33;20.08;;;-6.60;99.90;;;;;;5006263;28;20290;-68
2022/12/13 07:53:54;;;;;;;50.28;20.60;;;-6.60;99.90;;;;;;5005303;28;20053;-68
2022/12/13 07:56:21;;;;;;;47.25;21.83;;;-6.60;99.90;;;;;;5006258;28;20041;-69
2022/12/13 07:58:48;;;;;;;52.80;23.48;;;-6.50;99.90;;;;;;5002352;28;20041;-68
2022/12/13 08:01:14;;;;;;;53.72;23.00;;;-6.50;99.90;;;;;;5004478;28;20051;-69
2022/12/13 08:03:41;;;;;;;51.13;22.67;;;-6.40;99.90;;;;;;5005077;28;20077;-68
2022/12/13 08:06:11;;;;;;;54.05;20.48;;;-6.40;99.90;;;;;;5006449;28;20596;-68
2022/12/13 08:08:38;;;;;;;54.30;23.30;;;-6.40;99.90;;;;;;5004738;28;20134;-68
2022/12/13 08:11:08;;;;;;;47.83;21.42;;;-6.40;99.90;;;;;;5002180;28;20148;-69
2022/12/13 08:13:35;;;;;;;45.75;20.80;;;-6.30;99.90;;;;;;5006356;28;20609;-68
2022/12/13 08:16:05;;;;;;;47.13;19.73;;;-6.30;99.90;;;;;;5007527;28;20132;-68
2022/12/13 08:18:53;;;;;;;50.13;22.50;;;-6.30;99.90;;;;;;5009311;28;20048;-68
2022/12/13 08:21:38;;;;;;;50.20;22.38;;;-6.20;99.90;;;;;;5007913;28;20537;-68
2022/12/13 08:24:25;;;;;;;49.83;23.00;;;-6.20;99.90;;;;;;5004695;28;20051;-68
2022/12/13 08:26:53;;;;;;;51.13;21.95;;;-6.10;99.90;;;;;;5009130;28;20560;-68
2022/12/13 08:29:20;;;;;;;47.05;21.95;;;-6.10;99.90;;;;;;5008122;28;20148;-68
2022/12/13 08:32:06;;;;;;;50.15;21.77;;;-6.10;99.90;;;;;;5009377;28;20057;-68
2022/12/13 08:34:33;;;;;;;55.03;22.67;;;-6.00;99.90;;;;;;5011440;28;20049;-69
2022/12/13 08:37:00;;;;;;;48.10;21.63;;;-6.00;99.90;;;;;;4987046;28;20420;-69
2022/12/13 08:39:35;;;;;;;46.00;21.33;;;-5.90;99.90;;;;;;5016819;28;20503;-68
2022/12/13 08:42:15;;;;;;;44.80;20.27;;;-5.90;99.90;;;;;;5004637;28;20125;-69
2022/12/13 08:44:51;;;;;;;44.33;20.17;;;-5.90;99.90;;;;;;5006761;28;20053;-68
2022/12/13 08:47:22;;;;;;;54.20;23.42;;;-5.80;99.90;;;;;;5007281;28;20383;-68
2022/12/13 08:49:58;;;;;;;45.25;20.77;;;-5.80;99.90;;;;;;5007832;28;20315;-68
2022/12/13 08:52:30;;;;;;;;;;;-5.70;99.90;;;;;;5007898;28;20438;-69
2022/12/13 08:54:57;;;;;;;41.85;18.77;;;-5.70;99.90;;;;;;5003727;28;20006;-68
2022/12/13 08:57:24;;;;;;;45.03;19.73;;;-5.60;99.90;;;;;;5011975;28;20041;-70
2022/12/13 08:59:50;;;;;;;43.80;21.45;;;-5.60;99.90;;;;;;5007079;28;20041;-70
2022/12/13 09:02:17;;;;;;;41.35;18.98;;;-5.60;99.90;;;;;;5004331;28;20581;-68
2022/12/13 09:04:44;;;;;;;43.83;20.75;;;-5.50;99.90;;;;;;5010633;28;20123;-69
2022/12/13 09:07:12;;;;;;;39.92;19.08;;;-5.40;99.90;;;;;;5003427;28;20762;-68
2022/12/13 09:09:39;;;;;;;38.97;19.50;;;-5.40;99.90;;;;;;5003520;28;20518;-68
2022/12/13 09:12:06;;;;;;;35.65;18.10;;;-5.30;99.90;;;;;;5008287;28;20461;-68
2022/12/13 09:14:53;;;;;;;36.13;17.63;;;-5.30;99.90;;;;;;5006207;28;20049;-68
2022/12/13 09:17:30;;;;;;;35.13;17.70;;;-5.20;99.90;;;;;;5010695;28;20041;-68
2022/12/13 09:20:02;;;;;;;33.28;17.50;;;-5.20;99.90;;;;;;5004054;28;20518;-69
2022/12/13 09:22:50;;;;;;;34.83;16.98;;;-5.20;99.90;;;;;;5006422;28;20049;-69
2022/12/13 09:25:16;;;;;;;34.10;16.27;;;-5.20;99.90;;;;;;5010495;28;20045;-69
2022/12/13 09:27:50;;;;;;;29.77;16.02;;;-5.20;99.90;;;;;;5007133;28;20090;-69
2022/12/13 09:30:17;;;;;;;33.50;17.23;;;-5.10;99.90;;;;;;5005966;28;20419;-69
2022/12/13 09:32:48;;;;;;;30.35;16.05;;;-5.10;99.90;;;;;;5007389;28;20877;-69
2022/12/13 09:35:16;;;;;;;34.60;16.67;;;-5.10;99.90;;;;;;5006381;28;20041;-69
2022/12/13 09:37:42;;;;;;;33.83;17.88;;;-5.10;99.90;;;;;;5007552;28;20519;-69
2022/12/13 09:40:24;;;;;;;31.35;17.02;;;-5.10;99.90;;;;;;5005594;28;20042;-69
2022/12/13 09:42:58;;;;;;;35.08;18.73;;;-5.10;99.90;;;;;;5004825;28;20381;-69
2022/12/13 09:45:46;;;;;;;34.42;17.70;;;-5.10;99.90;;;;;;5007683;28;20052;-69
2022/12/13 09:48:22;;;;;;;31.58;16.63;;;-5.10;99.90;;;;;;5007833;28;20083;-69
2022/12/13 09:50:50;;;;;;;32.38;16.63;;;-5.10;99.90;;;;;;5006478;28;20053;-69
2022/12/13 09:53:37;;;;;;;33.00;17.23;;;-5.00;99.90;;;;;;5008511;28;20403;-69
2022/12/13 09:56:09;;;;;;;33.22;17.70;;;-5.00;99.90;;;;;;5008873;28;20542;-69
2022/12/13 09:58:37;;;;;;;34.88;18.92;;;-4.90;99.90;;;;;;5008527;28;20365;-68
2022/12/13 10:01:05;;;;;;;31.63;17.85;;;-4.90;99.90;;;;;;5007019;28;20120;-68
2022/12/13 10:03:31;;;;;;;39.90;20.02;;;-4.80;99.90;;;;;;5005916;28;20045;-68
2022/12/13 10:06:17;;;;;;;43.35;21.42;;;-4.80;99.90;;;;;;4990246;28;20160;-68
2022/12/13 10:08:55;;;;;;;33.40;17.40;;;-4.80;99.90;;;;;;5006054;28;20076;-68
2022/12/13 10:11:25;;;;;;;39.05;19.35;;;-4.80;99.90;;;;;;5003027;28;20196;-68
2022/12/13 10:14:25;;;;;;;33.55;18.13;;;-4.70;99.90;;;;;;5005458;28;20136;-68
2022/12/13 10:16:56;;;;;;;32.10;17.58;;;-4.70;99.90;;;;;;5013752;28;20162;-68
2022/12/13 10:19:35;;;;;;;32.78;17.35;;;-4.70;99.90;;;;;;5007347;28;20044;-68
2022/12/13 10:22:04;;;;;;;35.78;18.42;;;-4.70;99.90;;;;;;5005596;28;20048;-68
2022/12/13 10:24:54;;;;;;;39.17;19.25;;;-4.60;99.90;;;;;;5004669;28;20430;-69
2022/12/13 10:27:32;;;;;;;34.55;17.60;;;-4.60;99.90;;;;;;5006123;28;20437;-68
2022/12/13 10:30:04;;;;;;;;;;;-4.50;99.90;;;;;;5009233;28;20057;-68
2022/12/13 10:32:41;;;;;;;31.60;17.30;;;-4.40;99.90;;;;;;5006246;28;19979;-68
2022/12/13 10:35:35;;;;;;;30.80;17.35;;;-4.40;99.90;;;;;;5004896;28;20471;-68
2022/12/13 10:38:28;;;;;;;30.52;16.42;;;-4.40;99.90;;;;;;5017109;28;20103;-68
2022/12/13 10:40:58;;;;;;;31.15;16.15;;;-4.30;99.90;;;;;;5001997;28;20045;-69
2022/12/13 10:43:29;;;;;;;37.90;18.33;;;-4.20;99.90;;;;;;4998893;28;20361;-70
2022/12/13 10:45:59;;;;;;;36.63;18.63;;;-4.20;99.90;;;;;;5003159;28;20044;-69
2022/12/13 10:48:35;;;;;;;35.20;18.73;;;-4.20;99.90;;;;;;4999236;28;20315;-69
2022/12/13 10:51:20;;;;;;;34.75;17.88;;;-4.20;99.90;;;;;;5005172;28;20048;-68
2022/12/13 10:53:57;;;;;;;39.17;19.90;;;-4.20;99.90;;;;;;5004903;28;20430;-69
2022/12/13 10:56:34;;;;;;;;;;;-4.20;99.90;;;;;;5005104;28;20045;-68
2022/12/13 10:59:11;;;;;;;33.80;18.43;;;-4.20;99.90;;;;;;5007973;28;20248;-68
2022/12/13 11:01:43;;;;;;;40.47;18.13;;;-4.20;99.90;;;;;;5003390;28;20675;-68
2022/12/13 11:04:31;;;;;;;33.50;18.27;;;-4.20;99.90;;;;;;5003552;28;20049;-68
2022/12/13 11:07:24;;;;;;;37.83;16.65;;;-4.20;99.90;;;;;;5003304;28;20126;-68
2022/12/13 11:09:51;;;;;;;44.38;19.92;;;-4.10;99.90;;;;;;5003538;28;20345;-67
2022/12/13 11:12:22;;;;;;;35.88;19.05;;;-4.10;99.90;;;;;;5004550;28;20072;-68
2022/12/13 11:14:56;;;;;;;30.80;18.50;;;-4.00;99.90;;;;;;5009921;28;20561;-68
2022/12/13 11:17:25;;;;;;;39.85;20.27;;;-4.00;99.90;;;;;;5004658;28;20253;-68
2022/12/13 11:20:03;;;;;;;36.40;17.23;;;-4.00;99.90;;;;;;5002286;28;20132;-67
2022/12/13 11:22:39;;;;;;;33.65;19.05;;;-4.00;99.90;;;;;;5005821;28;20098;-68
2022/12/13 11:25:26;;;;;;;36.13;19.13;;;-3.90;99.90;;;;;;5005719;28;20380;-68
2022/12/13 11:28:24;;;;;;;37.35;19.58;;;-3.90;99.90;;;;;;5007607;28;20056;-69
2022/12/13 11:31:17;;;;;;;38.72;18.80;;;-3.90;99.90;;;;;;5008923;28;20322;-70
2022/12/13 11:34:19;;;;;;;39.05;19.85;;;-3.90;99.90;;;;;;5006118;28;20540;-70
2022/12/13 11:36:59;;;;;;;36.85;18.17;;;-3.80;99.90;;;;;;5006657;28;20583;-70
2022/12/13 11:39:26;;;;;;;36.70;18.73;;;-3.80;99.90;;;;;;4986594;28;20515;-70
2022/12/13 11:41:57;;;;;;;40.05;20.30;;;-3.80;99.90;;;;;;5002739;28;20629;-70
2022/12/13 11:44:38;;;;;;;40.10;20.38;;;-3.80;99.90;;;;;;5003286;28;20120;-70
2022/12/13 11:47:24;;;;;;;34.38;18.92;;;-3.80;99.90;;;;;;5004995;28;20045;-70
2022/12/13 11:49:51;;;;;;;38.65;19.75;;;-3.80;99.90;;;;;;5009359;28;20343;-70
2022/12/13 11:52:29;;;;;;;35.35;18.30;;;-3.80;99.90;;;;;;5008173;28;20895;-70
2022/12/13 11:55:03;;;;;;;35.95;18.98;;;-3.80;99.90;;;;;;5004516;28;20063;-70
2022/12/13 11:57:53;;;;;;;35.92;20.48;;;-3.80;99.90;;;;;;5001060;28;20053;-70
2022/12/13 12:00:38;;;;;;;34.80;19.17;;;-3.80;99.90;;;;;;5007634;28;20387;-69
2022/12/13 12:03:18;;;;;;;29.55;17.45;;;-3.80;99.90;;;;;;5002568;28;20479;-70
2022/12/13 12:06:01;;;;;;;38.25;19.42;;;-3.80;99.90;;;;;;4999478;28;20049;-70
2022/12/13 12:08:49;;;;;;;33.17;17.70;;;-3.70;99.90;;;;;;5002804;28;20135;-69
2022/12/13 12:11:26;;;;;;;31.73;17.42;;;-3.70;99.90;;;;;;4999839;28;20426;-69
2022/12/13 12:14:07;;;;;;;38.35;17.60;;;-3.70;99.90;;;;;;5004590;28;20249;-69
2022/12/13 12:16:41;;;;;;;37.08;19.40;;;-3.60;99.90;;;;;;5000834;28;20053;-69
2022/12/13 12:19:18;;;;;;;30.02;17.08;;;-3.60;99.90;;;;;;5001571;28;20450;-69
2022/12/13 12:21:50;;;;;;;38.42;19.60;;;-3.60;99.90;;;;;;5004011;28;20045;-69
2022/12/13 12:25:10;;;;;;;35.17;18.80;;;-3.50;99.90;;;;;;5001613;28;20076;-69
2022/12/13 12:27:58;;;;;;;36.15;19.77;;;-3.50;99.90;;;;;;4976746;28;20131;-68
2022/12/13 12:30:35;;;;;;;34.10;19.40;;;-3.50;99.90;;;;;;5001870;28;20610;-70
2022/12/13 12:33:31;;;;;;;30.10;18.75;;;-3.50;99.90;;;;;;4998276;28;20049;-69
2022/12/13 12:36:17;;;;;;;36.40;18.65;;;-3.50;99.90;;;;;;5003512;28;20560;-69
2022/12/13 12:39:01;;;;;;;33.67;18.33;;;-3.50;99.90;;;;;;5002844;28;20048;-68
2022/12/13 12:41:41;;;;;;;43.80;21.48;;;-3.50;99.90;;;;;;5000003;28;20096;-68
2022/12/13 12:44:35;;;;;;;34.60;19.30;;;-3.50;99.90;;;;;;4999495;28;20033;-68
2022/12/13 12:47:05;;;;;;;32.42;18.33;;;-3.40;99.90;;;;;;4998473;28;20130;-68
2022/12/13 12:50:10;;;;;;;33.38;18.02;;;-3.40;99.90;;;;;;5004828;28;20451;-69
2022/12/13 12:53:15;;;;;;;34.63;18.05;;;-3.40;99.90;;;;;;4999645;28;20493;-68
2022/12/13 12:56:23;;;;;;;28.02;16.40;;;-3.50;99.90;;;;;;5003827;28;20238;-69
2022/12/13 12:59:14;;;;;;;28.38;17.00;;;-3.50;99.90;;;;;;4982390;28;20441;-69
2022/12/13 13:02:11;;;;;;;29.38;17.23;;;-3.50;99.90;;;;;;5004976;28;20045;-69
2022/12/13 13:04:45;;;;;;;33.10;18.40;;;-3.50;99.90;;;;;;5001672;28;20522;-69
2022/12/13 13:07:26;;;;;;;36.83;18.38;;;-3.50;99.90;;;;;;5004883;28;20057;-69
2022/12/13 13:09:54;;;;;;;31.15;17.52;;;-3.50;99.90;;;;;;5013558;28;20119;-69
2022/12/13 13:12:23;;;;;;;30.38;15.75;;;-3.50;99.90;;;;;;5007105;28;20459;-69